Time;durP1;ratioP1;P1;durP2;ratioP2;P2;SDS_P1;SDS_P2;PMS_P1;PMS_P2;Temp;Humidity;BMP_temperature;BMP_pressure;BME280_temperature;BME280_humidity;BME280_pressure;Samples;Min_cycle;Max_cycle;Signal;HPM_P1;HPM_P2
2023/07/01 00:02:15;;;;;;;3.85;1.90;;;20.30;92.70;;;;;;5024535;28;20658;-42
2023/07/01 00:04:41;;;;;;;4.05;1.77;;;20.30;92.50;;;;;;5025328;28;20096;-42
2023/07/01 00:07:07;;;;;;;7.28;2.30;;;20.30;92.50;;;;;;5021031;28;20041;-42
2023/07/01 00:09:33;;;;;;;3.70;1.70;;;20.30;92.40;;;;;;5024428;28;20076;-43
2023/07/01 00:11:58;;;;;;;4.75;1.98;;;20.30;92.40;;;;;;5024277;28;20026;-42
2023/07/01 00:14:24;;;;;;;3.40;1.80;;;20.30;92.30;;;;;;5025244;28;20044;-43
2023/07/01 00:16:50;;;;;;;2.63;1.38;;;20.30;92.10;;;;;;5025408;28;20579;-42
2023/07/01 00:19:15;;;;;;;4.20;1.80;;;20.30;92.10;;;;;;5025896;28;20033;-42
2023/07/01 00:21:49;;;;;;;4.95;1.73;;;20.30;92.10;;;;;;5025447;28;20047;-42
2023/07/01 00:24:15;;;;;;;3.10;1.70;;;20.30;92.00;;;;;;5026039;28;20026;-42
2023/07/01 00:26:40;;;;;;;4.03;1.60;;;20.30;91.90;;;;;;5025244;28;20045;-42
2023/07/01 00:29:06;;;;;;;4.35;1.90;;;20.30;91.70;;;;;;5021473;28;20022;-42
2023/07/01 00:31:32;;;;;;;3.08;2.20;;;20.30;91.30;;;;;;5026553;28;20033;-42
2023/07/01 00:33:58;;;;;;;2.70;1.52;;;20.30;91.30;;;;;;5025526;28;20072;-42
2023/07/01 00:36:23;;;;;;;3.72;1.80;;;20.30;91.30;;;;;;5025885;28;20036;-42
2023/07/01 00:38:49;;;;;;;2.42;1.60;;;20.30;91.10;;;;;;5026592;28;20025;-42
2023/07/01 00:41:17;;;;;;;2.67;1.98;;;20.20;91.20;;;;;;5025571;28;20045;-42
2023/07/01 00:43:43;;;;;;;4.25;1.60;;;20.20;91.00;;;;;;5025899;28;20040;-43
2023/07/01 00:46:08;;;;;;;2.70;1.50;;;20.20;91.10;;;;;;5025559;28;20025;-42
2023/07/01 00:48:34;;;;;;;2.90;1.83;;;20.20;91.10;;;;;;5020857;28;20488;-43
2023/07/01 00:51:10;;;;;;;2.97;1.83;;;20.20;91.30;;;;;;5023569;28;20067;-43
2023/07/01 00:53:36;;;;;;;4.63;1.73;;;20.20;91.30;;;;;;5025249;28;20187;-43
2023/07/01 00:56:03;;;;;;;2.78;1.65;;;20.20;91.00;;;;;;5024593;28;20116;-42
2023/07/01 00:58:28;;;;;;;4.90;1.85;;;20.20;91.00;;;;;;5025812;28;20864;-42
2023/07/01 01:00:56;;;;;;;2.53;1.58;;;20.20;91.00;;;;;;5022953;28;20529;-42
2023/07/01 01:03:32;;;;;;;3.90;1.52;;;20.20;90.90;;;;;;5023880;28;20030;-42
2023/07/01 01:05:58;;;;;;;2.28;1.40;;;20.20;90.90;;;;;;5025059;28;20045;-41
2023/07/01 01:08:32;;;;;;;2.83;1.60;;;20.20;90.90;;;;;;5023560;28;20599;-42
2023/07/01 01:11:25;;;;;;;4.20;1.70;;;20.20;91.00;;;;;;5020881;28;20120;-42
2023/07/01 01:13:52;;;;;;;3.25;2.00;;;20.20;91.00;;;;;;5011212;28;20152;-42
2023/07/01 01:16:17;;;;;;;4.05;2.10;;;20.10;90.90;;;;;;5023759;28;20034;-42
2023/07/01 01:18:45;;;;;;;3.38;1.70;;;20.10;90.80;;;;;;5025290;28;20029;-42
2023/07/01 01:21:22;;;;;;;3.75;2.28;;;20.10;90.90;;;;;;5025236;28;20116;-42
2023/07/01 01:23:58;;;;;;;5.75;1.90;;;20.10;91.00;;;;;;5022219;28;20040;-42
2023/07/01 01:26:27;;;;;;;5.63;2.22;;;20.10;91.10;;;;;;5023533;28;20025;-42
2023/07/01 01:28:54;;;;;;;4.60;1.90;;;20.00;91.20;;;;;;5023292;28;20079;-42
2023/07/01 01:31:20;;;;;;;2.53;1.58;;;20.00;91.30;;;;;;5023744;28;20033;-42
2023/07/01 01:33:46;;;;;;;3.22;1.95;;;20.00;91.30;;;;;;5022428;28;20021;-42
2023/07/01 01:36:43;;;;;;;3.15;1.80;;;20.00;91.20;;;;;;5024236;28;20035;-41
2023/07/01 01:39:10;;;;;;;3.30;1.92;;;20.00;91.10;;;;;;4993400;28;20092;-42
2023/07/01 01:41:50;;;;;;;8.75;1.88;;;20.00;91.10;;;;;;5023904;28;20048;-42
2023/07/01 01:44:28;;;;;;;3.80;1.70;;;20.00;91.10;;;;;;5020302;28;20029;-43
2023/07/01 01:46:58;;;;;;;2.78;1.83;;;20.00;91.00;;;;;;5023467;28;20738;-42
2023/07/01 01:49:25;;;;;;;2.95;1.80;;;20.00;91.10;;;;;;5022188;28;20399;-42
2023/07/01 01:51:53;;;;;;;3.88;1.75;;;20.00;91.20;;;;;;5024246;28;20064;-42
2023/07/01 01:54:19;;;;;;;3.25;1.90;;;19.90;91.20;;;;;;5022448;28;20865;-43
2023/07/01 01:56:44;;;;;;;4.22;2.00;;;19.90;91.30;;;;;;5024645;28;20067;-43
2023/07/01 01:59:11;;;;;;;6.15;1.63;;;19.90;91.30;;;;;;5023534;28;20018;-43
2023/07/01 02:01:38;;;;;;;3.63;2.05;;;19.90;91.40;;;;;;5024600;28;20041;-43
2023/07/01 02:04:18;;;;;;;5.68;2.20;;;19.90;91.50;;;;;;5021834;28;20033;-43
2023/07/01 02:06:44;;;;;;;2.35;1.80;;;19.90;91.90;;;;;;5020361;28;20047;-42
2023/07/01 02:09:10;;;;;;;5.03;2.53;;;19.90;92.20;;;;;;5023198;28;20381;-43
2023/07/01 02:11:35;;;;;;;3.67;2.10;;;19.80;92.50;;;;;;5022567;28;20095;-41
2023/07/01 02:14:01;;;;;;;4.75;2.28;;;19.80;92.70;;;;;;5025058;28;20021;-43
2023/07/01 02:16:27;;;;;;;4.82;2.00;;;19.70;92.80;;;;;;5023711;28;20033;-42
2023/07/01 02:18:55;;;;;;;4.47;1.85;;;19.70;92.90;;;;;;5023955;28;20023;-42
2023/07/01 02:21:21;;;;;;;5.82;2.05;;;19.70;93.00;;;;;;5024333;28;20034;-43
2023/07/01 02:23:46;;;;;;;2.70;1.80;;;19.70;93.10;;;;;;5021946;28;20017;-42
2023/07/01 02:26:12;;;;;;;1.92;1.50;;;19.70;93.10;;;;;;5021384;28;20021;-42
2023/07/01 02:28:38;;;;;;;3.25;2.05;;;19.70;93.10;;;;;;5023041;28;20034;-43
2023/07/01 02:31:03;;;;;;;4.13;1.67;;;19.70;93.20;;;;;;5023262;28;20594;-43
2023/07/01 02:33:29;;;;;;;4.05;2.13;;;19.70;93.60;;;;;;5022036;28;20021;-42
2023/07/01 02:35:54;;;;;;;3.85;1.80;;;19.70;94.10;;;;;;5022080;28;20091;-42
2023/07/01 02:38:20;;;;;;;4.25;1.90;;;19.60;94.40;;;;;;5023590;28;20167;-43
2023/07/01 02:40:48;;;;;;;3.90;2.15;;;19.60;94.80;;;;;;5022402;28;20032;-43
2023/07/01 02:43:14;;;;;;;2.70;1.65;;;19.50;95.50;;;;;;5024474;28;20385;-43
2023/07/01 02:45:43;;;;;;;3.45;1.90;;;19.50;96.10;;;;;;5022874;28;20026;-43
2023/07/01 02:48:08;;;;;;;3.53;2.13;;;19.40;96.50;;;;;;5022866;28;20424;-43
2023/07/01 02:50:34;;;;;;;2.92;1.77;;;19.30;96.50;;;;;;5021602;28;20421;-43
2023/07/01 02:52:59;;;;;;;3.22;1.90;;;19.30;96.50;;;;;;5023261;28;20037;-43
2023/07/01 02:55:29;;;;;;;7.55;3.03;;;19.30;96.80;;;;;;5023000;28;20053;-42
2023/07/01 02:57:57;;;;;;;2.25;1.85;;;19.20;97.40;;;;;;5023774;28;20053;-43
2023/07/01 03:00:23;;;;;;;4.05;2.00;;;19.20;97.40;;;;;;5024104;28;20128;-43
2023/07/01 03:02:48;;;;;;;4.10;2.17;;;19.20;97.60;;;;;;5023361;28;20548;-42
2023/07/01 03:05:14;;;;;;;1.83;1.70;;;19.20;97.90;;;;;;5022781;28;20064;-43
2023/07/01 03:07:39;;;;;;;4.00;1.88;;;19.20;97.90;;;;;;5020754;28;20516;-42
2023/07/01 03:10:06;;;;;;;3.92;1.77;;;19.20;98.50;;;;;;5023771;28;20116;-43
2023/07/01 03:12:32;;;;;;;5.00;1.83;;;19.10;98.60;;;;;;5026754;28;20028;-42
2023/07/01 03:14:57;;;;;;;3.45;2.22;;;19.10;98.70;;;;;;5027017;28;20025;-42
2023/07/01 03:17:24;;;;;;;2.80;1.73;;;19.10;98.80;;;;;;5026738;28;20068;-43
2023/07/01 03:19:50;;;;;;;4.20;1.80;;;19.10;98.80;;;;;;5022947;28;20063;-43
2023/07/01 03:22:18;;;;;;;3.40;2.00;;;19.10;99.10;;;;;;5026740;28;20452;-43
2023/07/01 03:24:43;;;;;;;5.93;2.55;;;19.10;99.40;;;;;;5027194;28;20452;-42
2023/07/01 03:27:09;;;;;;;3.33;2.20;;;19.10;99.90;;;;;;5026919;28;20022;-42
2023/07/01 03:29:34;;;;;;;1.90;1.67;;;19.00;99.90;;;;;;5025894;28;20385;-43
2023/07/01 03:32:03;;;;;;;3.00;1.85;;;18.90;99.90;;;;;;5026835;28;20111;-42
2023/07/01 03:34:29;;;;;;;2.83;2.15;;;18.90;99.90;;;;;;5027538;28;20084;-42
2023/07/01 03:36:55;;;;;;;3.15;1.90;;;18.90;99.90;;;;;;5026182;28;20044;-42
2023/07/01 03:39:20;;;;;;;3.35;2.00;;;18.80;99.90;;;;;;5026812;28;20026;-42
2023/07/01 03:41:46;;;;;;;2.38;1.83;;;18.80;99.90;;;;;;5026783;28;20531;-43
2023/07/01 03:44:12;;;;;;;2.85;1.90;;;18.80;99.90;;;;;;5026826;28;20544;-42
2023/07/01 03:46:37;;;;;;;4.40;1.90;;;18.80;99.90;;;;;;5027537;28;20094;-43
2023/07/01 03:49:03;;;;;;;4.20;2.03;;;18.80;99.90;;;;;;5026293;28;20458;-43
2023/07/01 03:51:32;;;;;;;4.90;2.10;;;18.70;99.90;;;;;;5025308;28;20032;-42
2023/07/01 03:54:17;;;;;;;3.40;2.05;;;18.70;99.90;;;;;;5027339;28;20021;-41
2023/07/01 03:56:43;;;;;;;2.92;2.00;;;18.70;99.90;;;;;;5024135;28;20132;-42
2023/07/01 03:59:11;;;;;;;3.83;2.10;;;18.70;99.90;;;;;;5025576;28;20380;-41
2023/07/01 04:01:37;;;;;;;3.65;2.03;;;18.70;99.90;;;;;;5025500;28;20124;-42
2023/07/01 04:04:03;;;;;;;2.70;1.85;;;18.70;99.90;;;;;;5024631;28;20021;-42
2023/07/01 04:06:29;;;;;;;4.55;1.80;;;18.60;99.90;;;;;;5026078;28;20031;-42
2023/07/01 04:08:54;;;;;;;3.83;1.90;;;18.70;99.90;;;;;;5026678;28;20026;-42
2023/07/01 04:11:21;;;;;;;3.00;1.88;;;18.70;99.90;;;;;;5025516;28;20025;-43
2023/07/01 04:13:47;;;;;;;2.63;1.80;;;18.70;99.90;;;;;;5026371;28;20018;-41
2023/07/01 04:16:13;;;;;;;3.08;1.70;;;18.70;99.90;;;;;;5026076;28;20035;-42
2023/07/01 04:18:39;;;;;;;2.05;1.60;;;18.70;99.90;;;;;;5024482;28;20071;-42
2023/07/01 04:21:04;;;;;;;2.67;1.83;;;18.70;99.90;;;;;;5026768;28;20057;-42
2023/07/01 04:23:30;;;;;;;3.00;1.80;;;18.70;99.90;;;;;;5024485;28;20098;-42
2023/07/01 04:25:55;;;;;;;2.67;1.70;;;18.70;99.90;;;;;;5023092;28;20095;-42
2023/07/01 04:28:21;;;;;;;3.00;1.95;;;18.70;99.90;;;;;;5025826;28;20384;-41
2023/07/01 04:30:47;;;;;;;2.80;1.80;;;18.60;99.90;;;;;;5025450;28;20037;-43
2023/07/01 04:33:13;;;;;;;2.97;1.85;;;18.60;99.90;;;;;;5025422;28;20022;-43
2023/07/01 04:35:38;;;;;;;3.00;1.80;;;18.60;99.90;;;;;;5025046;28;20029;-43
2023/07/01 04:38:04;;;;;;;4.28;2.00;;;18.50;99.90;;;;;;5024673;28;20522;-42
2023/07/01 04:40:30;;;;;;;5.32;2.00;;;18.60;99.90;;;;;;5023859;28;20480;-42
2023/07/01 04:42:55;;;;;;;2.83;1.55;;;18.50;99.90;;;;;;5024687;28;20030;-42
2023/07/01 04:45:21;;;;;;;3.53;1.85;;;18.60;99.90;;;;;;5025026;28;20025;-43
2023/07/01 04:47:53;;;;;;;2.78;1.70;;;18.50;99.90;;;;;;5026330;28;20030;-43
2023/07/01 04:50:18;;;;;;;1.98;1.60;;;18.50;99.90;;;;;;5024730;28;20033;-42
2023/07/01 04:52:45;;;;;;;2.47;1.80;;;18.40;99.90;;;;;;5025255;28;20029;-43
2023/07/01 04:55:10;;;;;;;2.25;1.60;;;18.40;99.90;;;;;;5025595;28;20116;-42
2023/07/01 04:57:36;;;;;;;3.45;1.75;;;18.30;99.90;;;;;;5024496;28;20160;-43
2023/07/01 05:00:05;;;;;;;2.58;1.58;;;18.30;99.90;;;;;;5025208;28;20465;-42
2023/07/01 05:02:30;;;;;;;2.30;1.50;;;18.20;99.90;;;;;;5025329;28;20060;-43
2023/07/01 05:04:56;;;;;;;2.17;1.60;;;18.20;99.90;;;;;;5025932;28;20499;-42
2023/07/01 05:07:21;;;;;;;3.80;1.80;;;18.10;99.90;;;;;;5023444;28;20041;-42
2023/07/01 05:09:47;;;;;;;2.78;1.75;;;18.10;99.90;;;;;;5023898;28;20108;-42
2023/07/01 05:12:13;;;;;;;1.63;1.50;;;18.00;99.90;;;;;;5025980;28;20018;-42
2023/07/01 05:14:38;;;;;;;2.33;1.70;;;18.10;99.90;;;;;;5024450;28;20113;-42
2023/07/01 05:17:04;;;;;;;3.05;1.60;;;18.10;99.90;;;;;;5024002;28;20075;-41
2023/07/01 05:19:30;;;;;;;2.30;1.60;;;18.10;99.90;;;;;;5023991;28;20033;-42
2023/07/01 05:21:55;;;;;;;1.88;1.75;;;18.10;99.90;;;;;;5023190;28;20033;-42
2023/07/01 05:24:21;;;;;;;2.15;1.45;;;18.10;99.90;;;;;;5025463;28;20021;-43
2023/07/01 05:26:50;;;;;;;1.60;1.50;;;18.00;99.90;;;;;;5021291;28;20021;-42
2023/07/01 05:29:20;;;;;;;2.65;1.98;;;18.10;99.90;;;;;;5024758;28;20029;-42
2023/07/01 05:31:48;;;;;;;2.55;1.80;;;18.00;99.90;;;;;;5025071;28;20088;-42
2023/07/01 05:34:14;;;;;;;1.95;1.85;;;18.10;99.90;;;;;;5024826;28;20033;-43
2023/07/01 05:36:40;;;;;;;2.47;1.63;;;18.10;99.90;;;;;;5022944;28;20032;-42
2023/07/01 05:39:05;;;;;;;2.72;1.70;;;18.10;99.90;;;;;;5024339;28;20033;-43
2023/07/01 05:41:31;;;;;;;2.08;1.90;;;18.00;99.90;;;;;;5023896;28;20152;-41
2023/07/01 05:43:57;;;;;;;2.08;1.40;;;18.00;99.90;;;;;;5021349;28;20024;-41
2023/07/01 05:46:23;;;;;;;2.33;1.80;;;18.00;99.90;;;;;;5023313;28;20049;-41
2023/07/01 05:48:48;;;;;;;1.85;1.45;;;18.00;99.90;;;;;;5024242;28;20831;-41
2023/07/01 05:51:14;;;;;;;3.60;1.90;;;18.00;99.90;;;;;;5023784;28;20036;-42
2023/07/01 05:53:39;;;;;;;2.75;1.70;;;18.00;99.90;;;;;;5024462;28;20033;-45
2023/07/01 06:06:36;;;;;;;3.03;1.88;;;18.00;99.90;;;;;;5060089;28;20442;-34
2023/07/01 06:09:01;;;;;;;1.85;1.38;;;17.90;99.90;;;;;;5060984;28;20072;-33
2023/07/01 06:11:27;;;;;;;2.38;1.55;;;18.00;99.90;;;;;;5059836;28;20021;-33
2023/07/01 06:13:53;;;;;;;1.77;1.38;;;18.00;99.90;;;;;;5058569;28;20021;-34
2023/07/01 06:16:18;;;;;;;1.60;1.35;;;18.00;99.90;;;;;;5048720;28;20737;-34
2023/07/01 06:18:44;;;;;;;2.03;1.50;;;18.10;99.90;;;;;;5059590;28;20029;-34
2023/07/01 06:21:10;;;;;;;2.75;1.30;;;18.10;99.90;;;;;;5055516;28;20033;-34
2023/07/01 06:23:36;;;;;;;1.63;1.52;;;18.10;99.90;;;;;;5060573;28;20064;-34
2023/07/01 06:26:05;;;;;;;3.08;1.40;;;18.20;99.90;;;;;;5060831;28;20039;-33
2023/07/01 06:28:31;;;;;;;2.92;2.00;;;18.20;99.90;;;;;;5060464;28;20143;-34
2023/07/01 06:30:57;;;;;;;2.53;1.83;;;18.20;99.90;;;;;;5060332;28;20123;-35
2023/07/01 06:33:23;;;;;;;1.80;1.70;;;18.30;99.90;;;;;;5060328;28;20539;-34
2023/07/01 06:35:48;;;;;;;1.42;1.33;;;18.30;99.90;;;;;;5060813;28;20813;-34
2023/07/01 06:38:14;;;;;;;2.30;1.83;;;18.30;99.90;;;;;;5060637;28;20017;-34
2023/07/01 06:40:40;;;;;;;2.03;1.83;;;18.40;99.90;;;;;;5060451;28;20166;-34
2023/07/01 06:43:05;;;;;;;1.98;1.67;;;18.40;99.90;;;;;;5060443;28;20070;-33
2023/07/01 06:45:31;;;;;;;2.75;1.50;;;18.40;99.90;;;;;;5060770;28;20033;-34
2023/07/01 06:48:02;;;;;;;1.60;1.40;;;18.40;99.90;;;;;;5060326;28;20082;-34
2023/07/01 06:50:27;;;;;;;1.65;1.42;;;18.30;99.90;;;;;;5050244;28;20031;-33
2023/07/01 06:52:53;;;;;;;1.20;1.10;;;18.30;99.90;;;;;;5058944;28;20025;-34
2023/07/01 06:55:19;;;;;;;1.77;1.25;;;18.30;99.90;;;;;;5060668;28;20040;-35
2023/07/01 06:57:45;;;;;;;1.15;1.05;;;18.40;99.90;;;;;;5060918;28;20144;-35
2023/07/01 07:00:12;;;;;;;1.63;1.40;;;18.40;99.90;;;;;;5060084;28;20119;-34
2023/07/01 07:02:41;;;;;;;1.90;1.65;;;18.40;99.90;;;;;;5060674;28;20532;-35
2023/07/01 07:05:08;;;;;;;1.83;1.63;;;18.40;99.90;;;;;;5059451;28;20068;-34
2023/07/01 07:07:34;;;;;;;3.15;1.63;;;18.50;99.90;;;;;;5046363;28;20029;-35
2023/07/01 07:10:00;;;;;;;1.92;1.45;;;18.60;99.90;;;;;;5046458;28;20036;-35
2023/07/01 07:12:26;;;;;;;2.15;1.52;;;18.60;99.90;;;;;;5027351;28;20037;-34
2023/07/01 07:14:52;;;;;;;1.42;1.33;;;18.60;99.90;;;;;;5040151;28;20033;-34
2023/07/01 07:17:18;;;;;;;1.63;1.52;;;18.60;99.90;;;;;;5047128;28;20478;-34
2023/07/01 07:19:43;;;;;;;1.40;1.30;;;18.60;99.90;;;;;;5046930;28;20039;-34
2023/07/01 07:22:09;;;;;;;1.20;1.10;;;18.60;99.90;;;;;;5046167;28;20377;-34
2023/07/01 07:24:38;;;;;;;4.45;1.50;;;18.60;99.90;;;;;;5045993;28;20021;-34
2023/07/01 07:27:03;;;;;;;3.45;1.30;;;18.60;99.90;;;;;;5045628;28;20033;-34
2023/07/01 07:29:30;;;;;;;1.58;1.48;;;18.60;99.90;;;;;;5044759;28;20013;-34
2023/07/01 07:31:57;;;;;;;1.50;1.40;;;18.60;99.90;;;;;;5046378;28;20732;-33
2023/07/01 07:34:25;;;;;;;1.40;1.30;;;18.60;99.90;;;;;;5046179;28;20021;-33
2023/07/01 07:36:52;;;;;;;1.50;1.40;;;18.60;99.90;;;;;;5045110;28;20053;-32
2023/07/01 07:39:17;;;;;;;1.75;1.48;;;18.60;99.90;;;;;;5046505;28;20419;-38
2023/07/01 07:41:45;;;;;;;1.80;1.70;;;18.60;99.90;;;;;;5046226;28;20562;-36
2023/07/01 07:44:11;;;;;;;2.30;2.10;;;18.60;99.90;;;;;;5046565;28;20025;-34
2023/07/01 07:46:38;;;;;;;3.30;3.10;;;18.70;99.90;;;;;;5046284;28;20021;-33
2023/07/01 07:49:04;;;;;;;1.92;1.83;;;18.70;99.90;;;;;;5046632;28;20025;-34
2023/07/01 07:51:30;;;;;;;2.63;1.70;;;18.70;99.90;;;;;;5045885;28;20037;-35
2023/07/01 07:53:55;;;;;;;1.52;1.40;;;18.70;99.90;;;;;;5045442;28;20059;-33
2023/07/01 07:56:21;;;;;;;1.85;1.30;;;18.70;99.90;;;;;;5045655;28;20090;-41
2023/07/01 07:58:47;;;;;;;2.30;2.08;;;18.70;99.90;;;;;;5045463;28;20025;-42
2023/07/01 08:01:13;;;;;;;2.22;2.03;;;18.60;99.90;;;;;;5044716;28;20058;-42
2023/07/01 08:03:41;;;;;;;2.35;2.00;;;18.60;99.90;;;;;;5044099;28;20459;-41
2023/07/01 08:06:07;;;;;;;1.90;1.80;;;18.60;99.90;;;;;;5036261;28;20090;-42
2023/07/01 08:08:33;;;;;;;1.70;1.60;;;18.60;99.90;;;;;;5039254;28;20058;-43
2023/07/01 08:10:59;;;;;;;1.70;1.60;;;18.60;99.90;;;;;;5044583;28;20025;-42
2023/07/01 08:13:25;;;;;;;1.60;1.50;;;18.70;99.90;;;;;;5046341;28;20024;-42
2023/07/01 08:15:51;;;;;;;2.17;1.60;;;18.70;99.90;;;;;;5045364;28;20040;-43
2023/07/01 08:18:16;;;;;;;1.65;1.55;;;18.70;99.90;;;;;;5044158;28;20021;-42
2023/07/01 08:20:46;;;;;;;1.40;1.30;;;18.60;99.90;;;;;;5045593;28;20036;-43
2023/07/01 08:23:13;;;;;;;1.65;1.55;;;18.60;99.90;;;;;;5045877;28;20022;-43
2023/07/01 08:25:42;;;;;;;1.50;1.40;;;18.70;99.90;;;;;;5048124;28;20078;-43
2023/07/01 08:28:08;;;;;;;1.50;1.40;;;18.70;99.90;;;;;;5046107;28;20099;-42
2023/07/01 08:30:34;;;;;;;1.20;1.10;;;18.80;99.90;;;;;;5045851;28;20516;-43
2023/07/01 08:32:59;;;;;;;1.50;1.02;;;18.80;99.90;;;;;;5044964;28;20492;-43
2023/07/01 08:35:25;;;;;;;0.90;0.90;;;18.80;99.90;;;;;;5045065;28;20052;-43
2023/07/01 08:37:54;;;;;;;1.45;1.13;;;18.90;99.90;;;;;;5045530;28;20535;-42
2023/07/01 08:40:19;;;;;;;1.20;1.10;;;19.00;99.90;;;;;;5043535;28;20033;-43
2023/07/01 08:42:51;;;;;;;1.55;1.10;;;19.00;99.90;;;;;;5043612;28;20017;-42
2023/07/01 08:45:21;;;;;;;1.45;1.20;;;19.00;99.90;;;;;;5044446;28;20029;-42
2023/07/01 08:47:47;;;;;;;1.73;1.20;;;19.00;99.90;;;;;;5043799;28;20056;-42
2023/07/01 08:50:17;;;;;;;1.60;1.10;;;19.00;99.90;;;;;;5043427;28;20542;-42
2023/07/01 08:52:46;;;;;;;0.98;0.90;;;19.00;99.90;;;;;;5042660;28;20481;-42
2023/07/01 08:55:12;;;;;;;1.10;1.00;;;18.90;99.90;;;;;;5044073;28;20492;-42
2023/07/01 08:57:41;;;;;;;1.08;1.00;;;18.90;99.90;;;;;;5044395;28;20032;-42
2023/07/01 09:00:09;;;;;;;1.30;1.20;;;19.00;99.90;;;;;;5043242;28;20071;-42
2023/07/01 09:02:36;;;;;;;1.38;0.90;;;19.00;99.90;;;;;;5044199;28;20055;-42
2023/07/01 09:05:02;;;;;;;1.00;1.00;;;19.00;99.90;;;;;;5044117;28;20473;-43
2023/07/01 09:07:29;;;;;;;1.52;1.10;;;19.00;99.90;;;;;;5043653;28;20079;-43
2023/07/01 09:09:58;;;;;;;1.30;1.20;;;19.00;99.90;;;;;;5044241;28;20583;-41
2023/07/01 09:12:27;;;;;;;1.30;1.20;;;19.00;99.90;;;;;;5044968;28;20148;-42
2023/07/01 09:15:00;;;;;;;1.20;1.10;;;19.00;99.90;;;;;;5043333;28;20037;-41
2023/07/01 09:17:40;;;;;;;1.05;1.05;;;19.10;99.90;;;;;;5044580;28;20451;-41
2023/07/01 09:20:08;;;;;;;0.95;0.95;;;19.10;99.90;;;;;;5041368;28;20033;-42
2023/07/01 09:22:36;;;;;;;1.10;1.10;;;19.10;99.90;;;;;;5043555;28;20146;-41
2023/07/01 09:25:05;;;;;;;1.20;1.10;;;19.20;99.90;;;;;;5043497;28;20036;-41
2023/07/01 09:27:47;;;;;;;1.30;1.20;;;19.20;99.90;;;;;;5043839;28;20509;-41
2023/07/01 09:30:28;;;;;;;0.93;0.93;;;19.30;99.90;;;;;;5041627;28;20029;-42
2023/07/01 09:33:11;;;;;;;1.27;1.27;;;19.30;99.90;;;;;;5042098;28;20146;-42
2023/07/01 09:35:39;;;;;;;;;;;19.30;99.90;;;;;;5039945;28;20025;-41
2023/07/01 09:38:04;;;;;;;1.67;1.40;;;19.30;99.90;;;;;;5043122;28;19978;-42
2023/07/01 09:40:30;;;;;;;1.05;1.05;;;19.30;99.90;;;;;;5043756;28;20471;-41
2023/07/01 09:42:56;;;;;;;1.20;1.10;;;19.30;99.90;;;;;;5042835;28;20031;-41
2023/07/01 09:45:22;;;;;;;1.60;1.50;;;19.30;99.90;;;;;;5041558;28;20100;-41
2023/07/01 09:47:57;;;;;;;1.30;1.30;;;19.30;99.90;;;;;;5042872;28;20047;-42
2023/07/01 09:50:24;;;;;;;2.45;2.28;;;19.30;99.90;;;;;;5041258;28;20033;-41
2023/07/01 09:52:52;;;;;;;1.50;1.40;;;19.30;99.90;;;;;;5043209;28;20035;-42
2023/07/01 09:55:18;;;;;;;2.92;2.50;;;19.20;99.90;;;;;;5043108;28;20044;-42
2023/07/01 09:57:44;;;;;;;2.33;2.13;;;19.20;99.90;;;;;;5043003;28;20025;-43
2023/07/01 10:00:10;;;;;;;2.40;2.20;;;19.30;99.90;;;;;;5042898;28;20542;-42
2023/07/01 10:02:36;;;;;;;1.92;1.83;;;19.30;99.90;;;;;;5042914;28;20056;-42
2023/07/01 10:05:01;;;;;;;1.80;1.70;;;19.40;99.90;;;;;;5043090;28;20689;-41
2023/07/01 10:07:27;;;;;;;2.28;1.65;;;19.40;99.90;;;;;;5043486;28;20032;-42
2023/07/01 10:09:53;;;;;;;2.08;1.95;;;19.50;99.90;;;;;;5042180;28;20028;-41
2023/07/01 10:12:20;;;;;;;1.85;1.75;;;19.50;99.90;;;;;;5043055;28;20025;-42
2023/07/01 10:14:48;;;;;;;1.85;1.73;;;19.50;99.90;;;;;;5043135;28;20064;-43
2023/07/01 10:17:16;;;;;;;2.63;1.70;;;19.50;99.90;;;;;;5042517;28;20803;-42
2023/07/01 10:19:46;;;;;;;2.13;1.63;;;19.50;99.90;;;;;;5039172;28;20111;-41
2023/07/01 10:22:27;;;;;;;1.75;1.65;;;19.50;99.90;;;;;;5043298;28;20028;-42
2023/07/01 10:24:54;;;;;;;2.25;1.95;;;19.50;99.90;;;;;;5041685;28;20493;-43
2023/07/01 10:27:39;;;;;;;1.85;1.75;;;19.50;99.90;;;;;;5042948;28;20037;-42
2023/07/01 10:30:06;;;;;;;2.33;2.10;;;19.50;99.90;;;;;;5043137;28;20108;-41
2023/07/01 10:32:39;;;;;;;1.77;1.67;;;19.50;99.90;;;;;;5042255;28;20527;-41
2023/07/01 10:35:07;;;;;;;2.17;1.90;;;19.50;99.90;;;;;;5042755;28;20144;-41
2023/07/01 10:37:33;;;;;;;2.05;1.92;;;19.60;99.90;;;;;;5039570;28;20430;-42
2023/07/01 10:40:28;;;;;;;2.40;1.92;;;19.60;99.90;;;;;;5042099;28;20063;-41
2023/07/01 10:43:21;;;;;;;1.92;1.83;;;19.70;99.90;;;;;;5043399;28;20028;-42
2023/07/01 10:46:05;;;;;;;1.90;1.70;;;19.60;99.90;;;;;;5045402;28;20029;-43
2023/07/01 10:48:30;;;;;;;2.10;1.90;;;19.70;99.90;;;;;;5037157;28;20040;-43
2023/07/01 10:51:04;;;;;;;2.38;2.20;;;19.70;99.90;;;;;;5047025;28;20017;-42
2023/07/01 10:53:30;;;;;;;1.80;1.70;;;19.70;99.90;;;;;;5045925;28;20489;-42
2023/07/01 10:56:13;;;;;;;2.25;1.92;;;19.70;99.90;;;;;;5046479;28;20115;-42
2023/07/01 10:58:39;;;;;;;2.42;2.22;;;19.80;99.90;;;;;;5046582;28;20571;-42
2023/07/01 11:01:05;;;;;;;2.33;2.22;;;19.80;99.90;;;;;;5045564;28;20041;-43
2023/07/01 11:03:34;;;;;;;2.67;2.47;;;19.90;99.90;;;;;;5046048;28;20024;-43
2023/07/01 11:06:04;;;;;;;2.50;2.30;;;20.00;99.90;;;;;;5045621;28;20088;-42
2023/07/01 11:08:31;;;;;;;2.10;1.95;;;20.10;99.90;;;;;;5045983;28;20067;-42
2023/07/01 11:10:57;;;;;;;2.40;2.20;;;20.10;99.90;;;;;;5046229;28;20468;-42
2023/07/01 11:13:26;;;;;;;2.50;2.30;;;20.20;99.90;;;;;;5045249;28;20816;-42
2023/07/01 11:16:03;;;;;;;3.00;2.70;;;20.30;99.90;;;;;;5046370;28;20396;-43
2023/07/01 11:18:40;;;;;;;2.63;2.42;;;20.30;99.90;;;;;;5046101;28;20021;-45
2023/07/01 11:21:13;;;;;;;3.00;2.80;;;20.40;99.90;;;;;;5045184;28;20508;-43
2023/07/01 11:23:42;;;;;;;3.40;3.10;;;20.50;99.90;;;;;;5045622;28;20025;-42
2023/07/01 11:26:09;;;;;;;3.05;2.60;;;20.60;99.90;;;;;;5046704;28;20033;-42
2023/07/01 11:28:37;;;;;;;3.58;3.28;;;20.60;99.90;;;;;;5046034;28;20025;-42
2023/07/01 11:31:16;;;;;;;3.42;3.13;;;20.70;99.90;;;;;;5044044;28;20043;-43
2023/07/01 11:33:46;;;;;;;3.38;3.08;;;20.80;99.90;;;;;;5043181;28;20396;-42
2023/07/01 11:36:34;;;;;;;3.47;3.17;;;20.90;99.90;;;;;;5044923;28;20135;-41
2023/07/01 11:39:07;;;;;;;3.60;3.30;;;21.00;99.90;;;;;;5046607;28;20064;-41
2023/07/01 11:41:35;;;;;;;3.50;3.20;;;21.20;99.90;;;;;;5043585;28;20385;-42
2023/07/01 11:44:01;;;;;;;3.92;3.63;;;21.20;99.90;;;;;;5045419;28;20147;-43
2023/07/01 11:46:32;;;;;;;3.80;3.50;;;21.20;99.90;;;;;;5045925;28;20442;-42
2023/07/01 11:49:14;;;;;;;3.97;3.57;;;21.10;99.90;;;;;;5045918;28;20028;-41
2023/07/01 11:51:41;;;;;;;;;;;21.00;99.90;;;;;;5042278;28;20140;-42
2023/07/01 11:54:09;;;;;;;3.63;2.78;;;20.90;99.90;;;;;;5044871;28;20296;-43
2023/07/01 11:56:35;;;;;;;3.35;3.05;;;20.90;99.90;;;;;;5040566;28;20075;-42
2023/07/01 11:59:00;;;;;;;3.53;3.22;;;20.80;99.90;;;;;;5045162;28;20103;-42
2023/07/01 12:01:27;;;;;;;3.50;3.30;;;20.80;99.90;;;;;;5042509;28;20028;-42
2023/07/01 12:03:54;;;;;;;4.50;3.40;;;20.80;99.90;;;;;;5043985;28;20044;-41
2023/07/01 12:06:22;;;;;;;2.80;2.60;;;20.80;99.90;;;;;;5044719;28;20057;-42
2023/07/01 12:08:52;;;;;;;3.17;2.90;;;20.80;99.90;;;;;;5045910;28;20570;-41
2023/07/01 12:11:18;;;;;;;3.42;3.22;;;21.00;99.90;;;;;;5043936;28;20036;-41
2023/07/01 12:13:44;;;;;;;3.05;2.85;;;21.20;99.90;;;;;;5045894;28;20024;-42
2023/07/01 12:16:10;;;;;;;3.20;3.00;;;21.40;99.90;;;;;;5045621;28;20048;-42
2023/07/01 12:18:35;;;;;;;3.28;2.97;;;21.40;99.90;;;;;;5045329;28;20057;-41
2023/07/01 12:21:01;;;;;;;4.18;3.80;;;21.40;99.90;;;;;;5045985;28;20020;-41
2023/07/01 12:23:27;;;;;;;3.45;3.15;;;21.20;99.90;;;;;;5045300;28;20118;-41
2023/07/01 12:25:52;;;;;;;3.05;2.85;;;20.90;99.90;;;;;;5043823;28;20897;-41
2023/07/01 12:28:21;;;;;;;2.40;2.20;;;20.80;99.90;;;;;;5045530;28;20024;-41
2023/07/01 12:30:47;;;;;;;2.53;2.33;;;20.70;99.90;;;;;;5037172;28;20057;-42
2023/07/01 12:33:16;;;;;;;2.22;2.10;;;20.80;99.90;;;;;;5025334;28;20056;-41
2023/07/01 12:35:42;;;;;;;2.20;2.10;;;20.90;99.90;;;;;;5040140;28;20082;-42
2023/07/01 12:38:13;;;;;;;2.33;2.22;;;21.10;99.90;;;;;;5045095;28;20033;-42
2023/07/01 12:40:39;;;;;;;2.20;2.10;;;21.40;99.90;;;;;;5045625;28;20110;-42
2023/07/01 12:43:06;;;;;;;2.20;2.00;;;21.50;99.90;;;;;;5036981;28;20095;-41
2023/07/01 12:45:33;;;;;;;2.35;2.17;;;21.60;99.90;;;;;;5040240;28;20082;-42
2023/07/01 12:47:59;;;;;;;2.10;2.00;;;21.70;99.90;;;;;;5045767;28;20211;-42
2023/07/01 12:50:24;;;;;;;2.75;2.55;;;21.80;99.90;;;;;;5044745;28;20029;-42
2023/07/01 12:52:53;;;;;;;4.20;3.90;;;21.80;99.90;;;;;;5044293;28;20021;-42
2023/07/01 12:55:18;;;;;;;4.47;3.63;;;21.80;99.90;;;;;;5044673;28;20154;-42
2023/07/01 12:57:44;;;;;;;3.88;3.58;;;21.70;99.90;;;;;;5045062;28;20736;-42
2023/07/01 13:00:10;;;;;;;4.88;4.47;;;21.60;99.90;;;;;;5044079;28;20144;-42
2023/07/01 13:02:41;;;;;;;5.50;4.35;;;21.40;99.90;;;;;;5044011;28;20114;-42